Time;durP1;ratioP1;P1;durP2;ratioP2;P2;SDS_P1;SDS_P2;PMS_P1;PMS_P2;Temp;Humidity;BMP_temperature;BMP_pressure;BME280_temperature;BME280_humidity;BME280_pressure;Samples;Min_cycle;Max_cycle;Signal;HPM_P1;HPM_P2
2021/09/14 00:02:38;;;;;;;;;;;20.00;99.90;;;;;;5070585;28;19919;-70
2021/09/14 00:05:42;;;;;;;;;;;20.00;99.90;;;;;;5071980;28;19931;-70
2021/09/14 00:08:46;;;;;;;;;;;20.00;99.90;;;;;;5072449;28;19916;-70
2021/09/14 00:11:50;;;;;;;;;;;20.00;99.90;;;;;;5072502;28;19923;-70
2021/09/14 00:14:54;;;;;;;;;;;19.90;99.90;;;;;;5072189;28;20288;-70
2021/09/14 00:17:58;;;;;;;;;;;19.90;99.90;;;;;;5072752;28;19923;-70
2021/09/14 00:21:02;;;;;;;;;;;19.90;99.90;;;;;;5073028;28;19919;-70
2021/09/14 00:24:06;;;;;;;;;;;19.90;99.90;;;;;;5071315;28;19983;-70
2021/09/14 00:27:10;;;;;;;;;;;19.90;99.90;;;;;;5072628;28;20046;-70
2021/09/14 00:30:14;;;;;;;;;;;19.80;99.90;;;;;;5052807;28;19928;-70
2021/09/14 00:33:19;;;;;;;;;;;19.80;99.90;;;;;;5068831;28;19935;-70
2021/09/14 00:36:23;;;;;;;;;;;19.80;99.90;;;;;;5071040;28;19919;-70
2021/09/14 00:39:27;;;;;;;;;;;19.70;99.90;;;;;;5059139;28;19920;-70
2021/09/14 00:42:32;;;;;;;;;;;19.70;99.90;;;;;;5070824;28;19923;-69
2021/09/14 00:45:36;;;;;;;;;;;19.70;99.90;;;;;;5072162;28;19920;-70
2021/09/14 00:48:40;;;;;;;;;;;19.70;99.90;;;;;;5072246;28;19931;-70
2021/09/14 00:51:44;;;;;;;;;;;19.60;99.90;;;;;;5068061;28;19927;-70
2021/09/14 00:54:52;;;;;;;;;;;19.50;99.90;;;;;;5071547;28;19916;-70
2021/09/14 00:57:56;;;;;;;;;;;19.50;99.90;;;;;;5072207;28;19919;-70
2021/09/14 01:01:00;;;;;;;;;;;19.40;99.90;;;;;;5071790;28;19927;-70
2021/09/14 01:04:04;;;;;;;;;;;19.30;99.90;;;;;;5071423;28;19923;-70
2021/09/14 01:07:09;;;;;;;;;;;19.10;99.90;;;;;;5072014;28;19920;-71
2021/09/14 01:10:13;;;;;;;;;;;19.00;99.90;;;;;;5062304;28;19917;-70
2021/09/14 01:13:17;;;;;;;;;;;18.90;99.90;;;;;;5064835;28;19923;-70
2021/09/14 01:16:21;;;;;;;;;;;18.90;99.90;;;;;;5071093;28;19922;-70
2021/09/14 01:19:25;;;;;;;;;;;18.80;99.90;;;;;;5071860;28;20283;-70
2021/09/14 01:22:30;;;;;;;;;;;18.80;99.90;;;;;;5070259;28;19924;-70
2021/09/14 01:25:35;;;;;;;;;;;18.80;99.90;;;;;;5071076;28;19935;-70
2021/09/14 01:28:41;;;;;;;;;;;18.90;99.90;;;;;;5051017;28;19917;-70
2021/09/14 01:31:45;;;;;;;;;;;18.90;99.90;;;;;;5068714;28;19927;-70
2021/09/14 01:34:49;;;;;;;;;;;18.90;99.90;;;;;;5070286;28;19923;-70
2021/09/14 01:37:53;;;;;;;;;;;18.80;99.90;;;;;;5070940;28;20377;-70
2021/09/14 01:40:57;;;;;;;;;;;18.80;99.90;;;;;;5070029;28;19916;-70
2021/09/14 01:44:01;;;;;;;;;;;18.70;99.90;;;;;;5070117;28;19939;-70
2021/09/14 01:47:05;;;;;;;;;;;18.50;99.90;;;;;;5070489;28;19912;-70
2021/09/14 01:50:10;;;;;;;;;;;18.50;99.90;;;;;;5068581;28;20402;-70
2021/09/14 01:53:14;;;;;;;;;;;18.40;99.90;;;;;;5069742;28;19916;-70
2021/09/14 01:56:18;;;;;;;;;;;18.40;99.90;;;;;;5069383;28;19916;-70
2021/09/14 01:59:24;;;;;;;;;;;18.50;99.90;;;;;;5069787;28;19936;-69
2021/09/14 02:39:59;;;;;;;;;;;18.30;99.90;;;;;;5069326;28;19979;-69
2021/09/14 02:59:38;;;;;;;;;;;17.80;99.90;;;;;;5068624;28;19920;-69
2021/09/14 03:02:44;;;;;;;;;;;17.80;99.90;;;;;;5068785;28;20291;-69
2021/09/14 03:05:49;;;;;;;;;;;17.80;99.90;;;;;;5067067;28;19919;-69
2021/09/14 03:08:54;;;;;;;;;;;17.90;99.90;;;;;;5068503;28;20460;-69
2021/09/14 03:12:01;;;;;;;;;;;17.90;99.90;;;;;;5068455;28;19932;-69
2021/09/14 03:15:09;;;;;;;;;;;17.90;99.90;;;;;;5065657;28;20286;-70
2021/09/14 03:18:14;;;;;;;;;;;17.80;99.90;;;;;;5068441;28;19923;-69
2021/09/14 03:21:19;;;;;;;;;;;17.80;99.90;;;;;;5068795;28;20385;-69
2021/09/14 03:24:23;;;;;;;;;;;17.90;99.90;;;;;;5056451;28;19936;-69
2021/09/14 03:27:28;;;;;;;;;;;17.90;99.90;;;;;;5068450;28;19924;-69
2021/09/14 03:30:33;;;;;;;;;;;17.90;99.90;;;;;;5068703;28;19921;-70
2021/09/14 03:33:37;;;;;;;;;;;18.00;99.90;;;;;;5049626;28;19924;-69
2021/09/14 03:36:43;;;;;;;;;;;17.90;99.90;;;;;;5064019;28;20374;-70
2021/09/14 03:39:47;;;;;;;;;;;17.80;99.90;;;;;;5068824;28;19927;-70
2021/09/14 03:42:53;;;;;;;;;;;17.60;99.90;;;;;;5048749;28;19920;-69
2021/09/14 03:45:57;;;;;;;;;;;17.40;99.90;;;;;;5065033;28;20270;-69
2021/09/14 03:49:05;;;;;;;;;;;17.30;99.90;;;;;;5068430;28;20286;-70
2021/09/14 03:52:14;;;;;;;;;;;17.30;99.90;;;;;;5068086;28;19927;-69
2021/09/14 03:55:18;;;;;;;;;;;17.20;99.90;;;;;;5068350;28;20274;-69
2021/09/14 03:58:25;;;;;;;;;;;17.20;99.90;;;;;;5067955;28;20741;-69
2021/09/14 04:01:34;;;;;;;;;;;17.20;99.90;;;;;;5068426;28;19920;-69
2021/09/14 04:11:23;;;;;;;;;;;17.30;99.90;;;;;;5048479;28;19943;-69
2021/09/14 04:14:30;;;;;;;;;;;17.40;99.90;;;;;;5058344;28;19924;-69
2021/09/14 04:17:37;;;;;;;;;;;17.40;99.90;;;;;;5071396;28;20149;-69
2021/09/14 04:20:42;;;;;;;;;;;17.40;99.90;;;;;;5070609;28;20348;-70
2021/09/14 04:23:46;;;;;;;;;;;17.40;99.90;;;;;;5072476;28;19923;-69
2021/09/14 04:26:50;;;;;;;;;;;17.50;99.90;;;;;;5071701;28;19920;-69
2021/09/14 04:29:54;;;;;;;;;;;17.50;99.90;;;;;;5071078;28;19919;-70
2021/09/14 04:32:59;;;;;;;;;;;17.60;99.90;;;;;;5071629;28;19931;-69
2021/09/14 04:36:03;;;;;;;;;;;17.60;99.90;;;;;;5071102;28;19919;-69
2021/09/14 04:39:10;;;;;;;;;;;17.60;99.90;;;;;;5071198;28;20484;-69
2021/09/14 04:42:14;;;;;;;;;;;17.60;99.90;;;;;;5070923;28;19919;-70
2021/09/14 04:45:18;;;;;;;;;;;17.60;99.90;;;;;;5051653;28;19917;-69
2021/09/14 04:48:22;;;;;;;;;;;17.40;99.90;;;;;;5065615;28;19928;-69
2021/09/14 04:51:27;;;;;;;;;;;17.10;99.90;;;;;;5071645;28;19991;-69
2021/09/14 04:54:30;;;;;;;;;;;16.90;99.90;;;;;;5083455;28;19927;-69
2021/09/14 04:57:34;;;;;;;;;;;16.80;99.90;;;;;;5071692;28;19920;-69
2021/09/14 05:00:39;;;;;;;;;;;16.70;99.90;;;;;;5071287;28;19924;-69
2021/09/14 05:03:47;;;;;;;;;;;16.70;99.90;;;;;;5071842;28;19940;-69
2021/09/14 05:06:51;;;;;;;;;;;16.70;99.90;;;;;;5071140;28;19919;-69
2021/09/14 05:09:55;;;;;;;;;;;16.70;99.90;;;;;;5071488;28;20284;-69
2021/09/14 05:13:00;;;;;;;;;;;16.60;99.90;;;;;;5071070;28;20382;-69
2021/09/14 05:16:05;;;;;;;;;;;16.70;99.90;;;;;;5071703;28;19919;-69
2021/09/14 05:19:46;;;;;;;;;;;16.80;99.90;;;;;;5069397;28;19931;-69
2021/09/14 05:23:00;;;;;;;;;;;16.90;99.90;;;;;;5070559;28;20291;-69
2021/09/14 05:26:04;;;;;;;;;;;17.10;99.90;;;;;;5051262;28;19920;-70
2021/09/14 05:29:08;;;;;;;;;;;17.20;99.90;;;;;;5069561;28;19920;-69
2021/09/14 05:32:14;;;;;;;;;;;17.40;99.90;;;;;;5070158;28;19932;-69
2021/09/14 05:35:18;;;;;;;;;;;17.30;99.90;;;;;;5070990;28;19924;-69
2021/09/14 05:38:23;;;;;;;;;;;16.10;99.90;;;;;;5077522;28;20409;-70
2021/09/14 05:41:31;;;;;;;;;;;15.80;99.90;;;;;;5081294;28;19947;-70
2021/09/14 05:44:35;;;;;;;;;;;16.50;99.90;;;;;;5070882;28;19919;-69
2021/09/14 05:47:41;;;;;;;;;;;19.00;99.90;;;;;;5068874;28;20489;-69
2021/09/14 05:50:45;;;;;;;;;;;21.00;99.90;;;;;;5069843;28;20322;-69
2021/09/14 05:53:50;;;;;;;;;;;22.40;99.90;;;;;;5063541;28;19921;-69
2021/09/14 05:56:55;;;;;;;;;;;22.30;99.90;;;;;;5078710;28;20314;-68
2021/09/14 06:00:00;;;;;;;;;;;21.90;99.90;;;;;;5054961;28;19919;-69
2021/09/14 06:03:04;;;;;;;;;;;22.80;99.90;;;;;;5069976;28;20655;-70
2021/09/14 06:06:11;;;;;;;;;;;23.90;99.90;;;;;;5048775;28;19924;-70
2021/09/14 06:09:15;;;;;;;;;;;24.90;99.90;;;;;;5069116;28;19935;-69
2021/09/14 06:12:20;;;;;;;;;;;25.80;98.70;;;;;;5067302;28;19979;-70
2021/09/14 06:15:23;;;;;;;;;;;26.60;98.10;;;;;;5066517;28;19916;-69
2021/09/14 06:18:28;;;;;;;;;;;27.60;94.80;;;;;;5067487;28;19919;-70
2021/09/14 06:21:37;;;;;;;;;;;28.50;93.00;;;;;;5056938;28;19947;-70
2021/09/14 06:24:42;;;;;;;;;;;27.40;92.00;;;;;;5068772;28;19920;-70
2021/09/14 06:27:46;;;;;;;;;;;26.60;93.10;;;;;;5078254;28;19923;-70
2021/09/14 06:30:50;;;;;;;;;;;23.50;97.30;;;;;;5066415;28;20267;-70
2021/09/14 06:33:58;;;;;;;;;;;24.60;97.10;;;;;;5068680;28;20398;-70
2021/09/14 06:37:02;;;;;;;;;;;25.00;96.20;;;;;;5068372;28;19908;-70
2021/09/14 06:40:07;;;;;;;;;;;25.10;95.90;;;;;;5061997;28;19917;-70
2021/09/14 06:43:11;;;;;;;;;;;25.30;96.10;;;;;;5068406;28;19919;-70
2021/09/14 06:46:34;;;;;;;;;;;24.50;96.30;;;;;;5057215;28;19931;-70
2021/09/14 06:49:46;;;;;;;;;;;24.50;96.80;;;;;;5068691;28;19917;-70
2021/09/14 06:52:50;;;;;;;;;;;25.30;95.70;;;;;;5067134;28;20413;-70
2021/09/14 06:55:54;;;;;;;;;;;27.20;92.50;;;;;;5068715;28;19919;-68
2021/09/14 06:59:00;;;;;;;;;;;28.50;91.40;;;;;;5065605;28;20377;-68
2021/09/14 07:02:05;;;;;;;;;;;28.30;90.20;;;;;;5066518;28;20410;-69
2021/09/14 07:05:09;;;;;;;;;;;26.40;92.10;;;;;;5067832;28;20262;-68
2021/09/14 07:08:13;;;;;;;;;;;27.00;92.10;;;;;;5069309;28;19939;-68
2021/09/14 07:11:18;;;;;;;;;;;29.00;90.60;;;;;;5058232;28;19939;-68
2021/09/14 07:14:22;;;;;;;;;;;29.20;88.50;;;;;;5068453;28;19940;-68
2021/09/14 07:17:26;;;;;;;;;;;30.90;85.80;;;;;;5069356;28;19919;-69
2021/09/14 07:20:30;;;;;;;;;;;30.60;83.20;;;;;;5068230;28;20097;-68
2021/09/14 07:23:34;;;;;;;;;;;29.50;82.60;;;;;;5069022;28;19919;-68
2021/09/14 07:26:39;;;;;;;;;;;27.90;85.80;;;;;;5069332;28;20276;-69
2021/09/14 07:29:43;;;;;;;;;;;28.30;85.80;;;;;;5068507;28;19920;-69
2021/09/14 07:32:53;;;;;;;;;;;28.40;86.20;;;;;;5057573;28;19928;-68
2021/09/14 07:35:57;;;;;;;;;;;30.90;82.20;;;;;;5049929;28;19920;-69
2021/09/14 07:39:02;;;;;;;;;;;33.00;79.60;;;;;;5067341;28;19920;-69
2021/09/14 07:42:07;;;;;;;;;;;34.30;76.10;;;;;;5069301;28;19919;-69
2021/09/14 07:45:11;;;;;;;;;;;35.70;73.90;;;;;;5068572;28;19924;-69
2021/09/14 07:48:16;;;;;;;;;;;36.70;70.80;;;;;;5067258;28;19924;-69
2021/09/14 07:51:20;;;;;;;;;;;37.20;69.50;;;;;;5068284;28;19959;-69
2021/09/14 07:54:24;;;;;;;;;;;37.80;68.30;;;;;;5066430;28;19923;-69
2021/09/14 07:57:28;;;;;;;;;;;38.30;67.70;;;;;;5067158;28;19920;-69
2021/09/14 08:00:32;;;;;;;;;;;39.30;66.00;;;;;;5063668;28;19924;-70
2021/09/14 08:03:36;;;;;;;;;;;39.80;64.50;;;;;;5070411;28;20986;-70
2021/09/14 08:06:41;;;;;;;;;;;39.80;63.70;;;;;;5070742;28;20398;-70
2021/09/14 08:09:45;;;;;;;;;;;40.20;63.00;;;;;;5068530;28;20316;-70
2021/09/14 08:12:50;;;;;;;;;;;40.10;62.40;;;;;;5068537;28;19924;-69
2021/09/14 08:15:55;;;;;;;;;;;36.20;63.10;;;;;;5069666;28;19923;-69
2021/09/14 08:19:00;;;;;;;;;;;34.70;67.80;;;;;;5068549;28;19920;-69
2021/09/14 08:22:04;;;;;;;;;;;35.60;67.50;;;;;;5068990;28;20393;-69
2021/09/14 08:25:08;;;;;;;;;;;34.40;67.70;;;;;;5069850;28;19920;-69
2021/09/14 08:28:11;;;;;;;;;;;34.70;68.90;;;;;;5070814;28;19913;-69
2021/09/14 08:31:15;;;;;;;;;;;36.60;67.70;;;;;;5072338;28;20307;-69
2021/09/14 08:34:19;;;;;;;;;;;38.20;65.80;;;;;;5071394;28;20374;-70
2021/09/14 08:37:23;;;;;;;;;;;37.40;65.10;;;;;;5072197;28;19920;-70
2021/09/14 08:40:28;;;;;;;;;;;37.40;64.70;;;;;;5072238;28;19920;-69
2021/09/14 08:43:37;;;;;;;;;;;38.30;64.10;;;;;;5072901;28;19916;-69
2021/09/14 08:46:42;;;;;;;;;;;40.00;63.10;;;;;;5072379;28;20394;-70
2021/09/14 08:49:46;;;;;;;;;;;41.20;61.30;;;;;;5071844;28;19920;-69
2021/09/14 08:52:50;;;;;;;;;;;40.10;60.70;;;;;;5069241;28;20385;-69
2021/09/14 08:55:54;;;;;;;;;;;37.80;61.70;;;;;;5073330;28;20090;-69
2021/09/14 08:58:59;;;;;;;;;;;38.00;63.50;;;;;;5072296;28;19919;-73
2021/09/14 09:02:04;;;;;;;;;;;40.60;61.20;;;;;;5072216;28;19927;-73
2021/09/14 09:05:08;;;;;;;;;;;40.30;58.70;;;;;;5073611;28;19919;-73
2021/09/14 09:08:15;;;;;;;;;;;41.10;59.50;;;;;;5073082;28;19935;-70
2021/09/14 09:11:20;;;;;;;;;;;39.20;58.40;;;;;;5071048;28;20272;-72
2021/09/14 09:14:38;;;;;;;;;;;39.30;58.90;;;;;;5072844;28;19919;-69
2021/09/14 09:17:45;;;;;;;;;;;40.50;59.40;;;;;;5071977;28;19940;-70
2021/09/14 09:20:49;;;;;;;;;;;42.70;57.40;;;;;;5069067;28;19940;-73
2021/09/14 09:23:54;;;;;;;;;;;41.80;56.40;;;;;;5074309;28;20480;-73
2021/09/14 09:26:58;;;;;;;;;;;43.30;56.40;;;;;;5072502;28;19919;-73
2021/09/14 09:30:06;;;;;;;;;;;45.00;55.10;;;;;;5073658;28;19912;-74
2021/09/14 09:33:10;;;;;;;;;;;46.60;53.40;;;;;;5073209;28;20370;-71
2021/09/14 09:36:14;;;;;;;;;;;45.90;52.50;;;;;;5072292;28;19935;-70
2021/09/14 09:39:18;;;;;;;;;;;46.10;51.80;;;;;;5070577;28;19928;-70
2021/09/14 09:42:22;;;;;;;;;;;47.10;51.00;;;;;;5070224;28;19928;-70
2021/09/14 09:45:26;;;;;;;;;;;41.60;51.90;;;;;;5071598;28;20300;-69
2021/09/14 09:48:31;;;;;;;;;;;37.60;56.90;;;;;;5070223;28;19928;-69
2021/09/14 09:51:38;;;;;;;;;;;36.30;59.00;;;;;;5070232;28;19927;-70
2021/09/14 09:54:43;;;;;;;;;;;40.70;55.80;;;;;;5071450;28;19928;-70
2021/09/14 09:57:47;;;;;;;;;;;44.20;53.30;;;;;;5070143;28;19916;-70
2021/09/14 10:00:54;;;;;;;;;;;46.40;51.30;;;;;;5069732;28;19927;-70
2021/09/14 10:04:03;;;;;;;;;;;47.80;49.70;;;;;;5071303;28;19923;-70
2021/09/14 10:07:07;;;;;;;;;;;49.30;48.10;;;;;;5071032;28;19919;-70
2021/09/14 10:10:12;;;;;;;;;;;49.90;47.20;;;;;;5069778;28;19923;-70
2021/09/14 10:13:16;;;;;;;;;;;49.70;47.00;;;;;;5070152;28;19928;-71
2021/09/14 10:16:24;;;;;;;;;;;48.40;47.20;;;;;;5067478;28;19935;-70
2021/09/14 10:19:28;;;;;;;;;;;47.90;48.00;;;;;;5069891;28;19931;-71
2021/09/14 10:22:32;;;;;;;;;;;47.50;48.30;;;;;;5070025;28;19920;-70
2021/09/14 10:25:37;;;;;;;;;;;44.20;48.90;;;;;;5069868;28;19919;-70
2021/09/14 10:28:45;;;;;;;;;;;43.60;50.00;;;;;;5063029;28;19939;-70
2021/09/14 10:31:59;;;;;;;;;;;44.70;50.10;;;;;;5067165;28;19936;-70
2021/09/14 10:35:03;;;;;;;;;;;46.80;48.90;;;;;;5069399;28;19923;-71
2021/09/14 10:38:08;;;;;;;;;;;47.80;47.90;;;;;;5063844;28;19917;-71
2021/09/14 10:41:14;;;;;;;;;;;47.50;47.80;;;;;;5059304;28;19928;-70
2021/09/14 10:44:26;;;;;;;;;;;48.20;48.00;;;;;;5070513;28;19917;-70
2021/09/14 10:47:35;;;;;;;;;;;48.50;48.90;;;;;;5069210;28;19927;-70
2021/09/14 10:50:39;;;;;;;;;;;48.50;48.70;;;;;;5070111;28;20282;-70
2021/09/14 10:54:13;;;;;;;;;;;47.90;48.10;;;;;;5070967;28;20373;-70
2021/09/14 10:57:19;;;;;;;;;;;47.80;47.80;;;;;;5058384;28;19924;-71
2021/09/14 11:00:32;;;;;;;;;;;47.40;47.50;;;;;;5066315;28;20381;-71
2021/09/14 11:03:37;;;;;;;;;;;47.00;48.10;;;;;;5064235;28;19940;-71
2021/09/14 11:06:47;;;;;;;;;;;47.40;47.70;;;;;;5066322;28;19927;-71
2021/09/14 11:09:53;;;;;;;;;;;48.20;46.90;;;;;;5069436;28;20221;-70
2021/09/14 11:12:57;;;;;;;;;;;48.70;46.60;;;;;;5067858;28;19919;-71
2021/09/14 11:16:03;;;;;;;;;;;48.90;46.80;;;;;;5065869;28;19923;-70
2021/09/14 11:19:07;;;;;;;;;;;48.80;47.00;;;;;;5066140;28;20370;-70
2021/09/14 11:22:11;;;;;;;;;;;48.50;45.40;;;;;;5063777;28;20300;-70
2021/09/14 11:25:17;;;;;;;;;;;47.50;45.90;;;;;;5064265;28;19932;-70
2021/09/14 11:28:21;;;;;;;;;;;47.10;47.10;;;;;;5072579;28;20291;-70
2021/09/14 11:31:26;;;;;;;;;;;46.60;48.00;;;;;;5072663;28;19919;-70
2021/09/14 11:34:31;;;;;;;;;;;45.90;47.40;;;;;;5069379;28;19923;-70
2021/09/14 11:37:35;;;;;;;;;;;45.50;47.20;;;;;;5069794;28;19920;-69
2021/09/14 11:40:50;;;;;;;;;;;41.40;48.50;;;;;;5063726;28;19919;-70
2021/09/14 11:43:54;;;;;;;;;;;42.50;49.90;;;;;;5071434;28;19951;-70
2021/09/14 11:47:05;;;;;;;;;;;43.30;49.70;;;;;;5056056;28;19920;-70
2021/09/14 11:50:10;;;;;;;;;;;43.40;49.80;;;;;;5071015;28;19916;-70
2021/09/14 11:53:17;;;;;;;;;;;43.80;49.40;;;;;;5068435;28;20334;-70
2021/09/14 11:56:24;;;;;;;;;;;44.40;48.70;;;;;;5064028;28;19920;-69
2021/09/14 11:59:36;;;;;;;;;;;43.90;49.20;;;;;;5071488;28;19919;-70
2021/09/14 12:02:50;;;;;;;;;;;44.00;48.50;;;;;;5070241;28;19932;-70
2021/09/14 12:05:55;;;;;;;;;;;45.50;48.00;;;;;;5066032;28;19917;-70
2021/09/14 12:09:00;;;;;;;;;;;47.00;47.40;;;;;;5069912;28;20283;-68
2021/09/14 12:12:06;;;;;;;;;;;45.60;45.40;;;;;;5069180;28;19928;-70
2021/09/14 12:15:10;;;;;;;;;;;43.50;48.00;;;;;;5071855;28;20371;-70
2021/09/14 12:18:15;;;;;;;;;;;43.50;47.50;;;;;;5072733;28;19920;-69
2021/09/14 12:21:19;;;;;;;;;;;40.80;49.80;;;;;;5071592;28;19924;-69
2021/09/14 12:24:23;;;;;;;;;;;41.50;49.60;;;;;;5071333;28;19923;-71
2021/09/14 12:27:29;;;;;;;;;;;43.40;47.90;;;;;;5072355;28;19920;-71
2021/09/14 12:30:33;;;;;;;;;;;45.20;46.10;;;;;;5068260;28;19920;-69
2021/09/14 12:33:38;;;;;;;;;;;43.80;44.90;;;;;;5071827;28;20296;-69
2021/09/14 12:36:43;;;;;;;;;;;42.50;45.90;;;;;;5053038;28;19920;-70
2021/09/14 12:39:47;;;;;;;;;;;44.10;45.80;;;;;;5070328;28;20389;-70
2021/09/14 12:42:51;;;;;;;;;;;45.10;44.90;;;;;;5070124;28;20279;-71
2021/09/14 12:45:57;;;;;;;;;;;45.30;44.60;;;;;;5067142;28;19919;-71
2021/09/14 12:49:01;;;;;;;;;;;46.40;44.50;;;;;;5070924;28;19919;-71
2021/09/14 12:52:05;;;;;;;;;;;46.80;44.10;;;;;;5070648;28;19920;-70
2021/09/14 12:55:09;;;;;;;;;;;47.80;43.70;;;;;;5070539;28;19924;-71
2021/09/14 12:58:13;;;;;;;;;;;47.80;43.00;;;;;;5071848;28;19919;-71
2021/09/14 13:01:17;;;;;;;;;;;41.50;44.00;;;;;;5070609;28;19932;-70
2021/09/14 13:04:21;;;;;;;;;;;42.40;45.80;;;;;;5070733;28;19920;-68
2021/09/14 13:07:25;;;;;;;;;;;43.10;45.80;;;;;;5069487;28;19923;-69
2021/09/14 13:10:29;;;;;;;;;;;43.10;45.20;;;;;;5069713;28;19924;-70
2021/09/14 13:16:55;;;;;;;;;;;43.00;45.70;;;;;;5060349;28;19923;-70
2021/09/14 13:19:59;;;;;;;;;;;44.00;44.60;;;;;;5071382;28;19920;-69
2021/09/14 13:23:03;;;;;;;;;;;43.90;45.20;;;;;;5069370;28;19939;-71
2021/09/14 13:26:08;;;;;;;;;;;44.00;44.60;;;;;;5051964;28;20315;-70
2021/09/14 13:29:12;;;;;;;;;;;44.10;44.80;;;;;;5069579;28;19943;-70
2021/09/14 13:32:16;;;;;;;;;;;43.70;45.20;;;;;;5070275;28;19924;-70
2021/09/14 13:35:20;;;;;;;;;;;43.40;45.30;;;;;;5064306;28;19939;-70
2021/09/14 13:38:25;;;;;;;;;;;43.40;45.40;;;;;;5070855;28;20314;-70
2021/09/14 13:41:36;;;;;;;;;;;42.70;45.80;;;;;;5067991;28;19932;-70
2021/09/14 13:47:56;;;;;;;;;;;41.00;47.10;;;;;;5068005;28;19913;-70
2021/09/14 13:51:02;;;;;;;;;;;40.50;47.40;;;;;;5068923;28;20278;-71
2021/09/14 13:54:06;;;;;;;;;;;40.50;47.30;;;;;;5069783;28;19924;-71
2021/09/14 13:57:10;;;;;;;;;;;39.30;48.60;;;;;;5070522;28;19919;-71
2021/09/14 14:00:15;;;;;;;;;;;38.30;49.00;;;;;;5066062;28;19931;-71
2021/09/14 14:03:18;;;;;;;;;;;38.10;50.40;;;;;;5069369;28;20279;-68
2021/09/14 14:06:27;;;;;;;;;;;37.80;49.90;;;;;;5069944;28;19919;-68
2021/09/14 14:09:31;;;;;;;;;;;37.50;50.70;;;;;;5070213;28;19923;-70
2021/09/14 14:12:35;;;;;;;;;;;36.60;51.40;;;;;;5069355;28;19919;-71
2021/09/14 14:15:40;;;;;;;;;;;36.00;51.70;;;;;;5069914;28;19924;-70
2021/09/14 14:18:44;;;;;;;;;;;35.70;51.60;;;;;;5069861;28;19919;-70
2021/09/14 14:21:48;;;;;;;;;;;35.30;52.10;;;;;;5067547;28;19920;-70
2021/09/14 14:24:53;;;;;;;;;;;34.80;52.80;;;;;;5053885;28;19923;-71
2021/09/14 14:27:57;;;;;;;;;;;34.50;53.10;;;;;;5070573;28;19923;-70
2021/09/14 14:31:01;;;;;;;;;;;34.40;53.50;;;;;;5069436;28;19919;-69
2021/09/14 14:34:05;;;;;;;;;;;34.10;54.10;;;;;;5070350;28;19923;-70
2021/09/14 14:37:09;;;;;;;;;;;33.70;54.70;;;;;;5069990;28;19924;-70
2021/09/14 14:40:13;;;;;;;;;;;33.70;55.30;;;;;;5067522;28;20255;-70
2021/09/14 14:43:17;;;;;;;;;;;33.50;55.80;;;;;;5068792;28;19928;-68
2021/09/14 14:46:21;;;;;;;;;;;33.40;56.00;;;;;;5067905;28;19978;-70
2021/09/14 14:49:25;;;;;;;;;;;33.10;56.60;;;;;;5069022;28;19923;-70
2021/09/14 14:52:29;;;;;;;;;;;33.00;57.30;;;;;;5068248;28;20374;-70
2021/09/14 14:55:33;;;;;;;;;;;32.80;58.10;;;;;;5069539;28;19927;-70
2021/09/14 14:58:38;;;;;;;;;;;32.70;58.50;;;;;;5067106;28;20242;-70
2021/09/14 15:01:43;;;;;;;;;;;32.70;58.60;;;;;;5062832;28;19927;-71
2021/09/14 15:04:47;;;;;;;;;;;32.80;59.00;;;;;;5069575;28;19928;-69
2021/09/14 15:07:51;;;;;;;;;;;32.70;59.20;;;;;;5068664;28;20287;-69
2021/09/14 15:10:55;;;;;;;;;;;32.40;59.80;;;;;;5067852;28;19920;-70
2021/09/14 15:13:59;;;;;;;;;;;32.20;60.40;;;;;;5069901;28;19919;-70
2021/09/14 15:17:03;;;;;;;;;;;32.10;60.40;;;;;;5070286;28;19923;-70
2021/09/14 15:20:07;;;;;;;;;;;32.40;60.50;;;;;;5069136;28;19919;-70
2021/09/14 15:23:12;;;;;;;;;;;32.60;60.20;;;;;;5069462;28;19950;-70
2021/09/14 15:26:17;;;;;;;;;;;32.80;60.20;;;;;;5070078;28;20275;-67
2021/09/14 15:29:21;;;;;;;;;;;32.80;58.70;;;;;;5068972;28;19920;-69
2021/09/14 15:32:25;;;;;;;;;;;32.30;59.30;;;;;;5068973;28;19919;-70
2021/09/14 15:35:30;;;;;;;;;;;31.80;59.80;;;;;;5069800;28;20389;-70
2021/09/14 15:38:37;;;;;;;;;;;31.60;60.80;;;;;;5069545;28;19971;-70
2021/09/14 15:41:41;;;;;;;;;;;31.30;60.60;;;;;;5068459;28;20248;-70
2021/09/14 15:44:45;;;;;;;;;;;31.00;60.30;;;;;;5068839;28;19947;-69
2021/09/14 15:47:49;;;;;;;;;;;30.70;60.20;;;;;;5065751;28;19923;-70
2021/09/14 15:50:53;;;;;;;;;;;30.30;60.30;;;;;;5068437;28;19921;-69
2021/09/14 15:53:57;;;;;;;;;;;30.00;59.50;;;;;;5069467;28;19944;-69
2021/09/14 15:57:02;;;;;;;;;;;29.70;59.90;;;;;;5068554;28;19920;-69
2021/09/14 16:00:06;;;;;;;;;;;29.50;59.10;;;;;;5068911;28;19935;-70
2021/09/14 16:03:15;;;;;;;;;;;29.50;59.10;;;;;;5069155;28;20291;-69
2021/09/14 16:06:20;;;;;;;;;;;29.40;58.80;;;;;;5049309;28;19944;-70
2021/09/14 16:09:24;;;;;;;;;;;29.30;58.60;;;;;;5065494;28;19920;-70
2021/09/14 16:12:28;;;;;;;;;;;29.30;58.80;;;;;;5072393;28;20106;-70
2021/09/14 16:15:32;;;;;;;;;;;29.20;59.40;;;;;;5053306;28;19916;-70
2021/09/14 16:18:36;;;;;;;;;;;29.00;60.00;;;;;;5070081;28;19936;-69
2021/09/14 16:21:40;;;;;;;;;;;28.90;60.70;;;;;;5072118;28;19919;-70
2021/09/14 16:24:44;;;;;;;;;;;28.80;61.10;;;;;;5053444;28;19919;-69
2021/09/14 16:27:49;;;;;;;;;;;28.70;61.60;;;;;;5071919;28;19920;-70
2021/09/14 16:30:53;;;;;;;;;;;28.60;62.00;;;;;;5070894;28;20295;-69
2021/09/14 16:33:57;;;;;;;;;;;28.50;62.30;;;;;;5072541;28;19943;-70
2021/09/14 16:37:01;;;;;;;;;;;28.40;62.70;;;;;;5072282;28;20691;-69
2021/09/14 16:40:06;;;;;;;;;;;28.40;62.90;;;;;;5070850;28;19920;-70
2021/09/14 16:43:10;;;;;;;;;;;28.40;63.20;;;;;;5072408;28;20382;-69
2021/09/14 16:46:14;;;;;;;;;;;28.40;63.30;;;;;;5071033;28;20319;-69
2021/09/14 16:49:18;;;;;;;;;;;28.40;63.20;;;;;;5072092;28;19924;-69
2021/09/14 16:52:22;;;;;;;;;;;28.40;63.00;;;;;;5071154;28;19920;-69
2021/09/14 16:55:27;;;;;;;;;;;28.30;62.50;;;;;;5072470;28;19920;-68
2021/09/14 16:58:36;;;;;;;;;;;28.30;62.90;;;;;;5072016;28;19924;-70
2021/09/14 17:01:40;;;;;;;;;;;28.20;62.90;;;;;;5071832;28;19939;-69
2021/09/14 17:04:44;;;;;;;;;;;28.10;63.20;;;;;;5064285;28;19924;-70
2021/09/14 17:07:49;;;;;;;;;;;27.90;63.80;;;;;;5070983;28;19920;-70
2021/09/14 17:10:53;;;;;;;;;;;27.80;64.30;;;;;;5071368;28;20371;-71
2021/09/14 17:13:57;;;;;;;;;;;27.60;64.60;;;;;;5071143;28;19936;-70
2021/09/14 17:17:01;;;;;;;;;;;27.40;65.20;;;;;;5070976;28;19935;-70
2021/09/14 17:20:06;;;;;;;;;;;27.10;66.00;;;;;;5071260;28;19916;-70
2021/09/14 17:23:10;;;;;;;;;;;26.80;66.70;;;;;;5071103;28;19923;-70
2021/09/14 17:26:14;;;;;;;;;;;26.60;67.10;;;;;;5066850;28;19923;-70
2021/09/14 17:29:20;;;;;;;;;;;26.30;67.90;;;;;;5071015;28;19919;-70
2021/09/14 17:32:24;;;;;;;;;;;26.10;68.40;;;;;;5071377;28;19936;-70
2021/09/14 17:35:30;;;;;;;;;;;25.90;69.00;;;;;;5068986;28;19918;-70
2021/09/14 17:38:37;;;;;;;;;;;25.80;69.20;;;;;;5070852;28;19927;-71
2021/09/14 17:41:41;;;;;;;;;;;25.70;69.10;;;;;;5070889;28;19927;-70
2021/09/14 17:44:45;;;;;;;;;;;25.70;69.50;;;;;;5071274;28;20310;-70
2021/09/14 17:47:49;;;;;;;;;;;25.70;69.90;;;;;;5070620;28;19919;-70
2021/09/14 17:50:53;;;;;;;;;;;25.60;70.00;;;;;;5071310;28;19935;-70
2021/09/14 17:53:57;;;;;;;;;;;25.60;70.20;;;;;;5070410;28;19924;-70
2021/09/14 17:57:01;;;;;;;;;;;25.50;70.30;;;;;;5070726;28;19927;-70
2021/09/14 18:00:05;;;;;;;;;;;25.50;70.30;;;;;;5070492;28;19936;-70
2021/09/14 18:03:09;;;;;;;;;;;25.50;70.40;;;;;;5051067;28;19924;-70
2021/09/14 18:06:13;;;;;;;;;;;25.50;70.60;;;;;;5070275;28;20394;-70
2021/09/14 18:09:17;;;;;;;;;;;25.40;70.40;;;;;;5069544;28;19919;-70
2021/09/14 18:12:21;;;;;;;;;;;25.40;70.30;;;;;;5058181;28;19917;-69
2021/09/14 18:15:25;;;;;;;;;;;25.40;70.40;;;;;;5070216;28;19920;-70
2021/09/14 18:18:29;;;;;;;;;;;25.30;70.40;;;;;;5070216;28;20138;-69
2021/09/14 18:21:33;;;;;;;;;;;25.30;70.50;;;;;;5070634;28;19919;-71
2021/09/14 18:24:37;;;;;;;;;;;25.30;70.40;;;;;;5066102;28;19923;-70
2021/09/14 18:27:42;;;;;;;;;;;25.20;70.00;;;;;;5069735;28;20310;-71
2021/09/14 18:30:46;;;;;;;;;;;25.20;69.80;;;;;;5069444;28;19919;-70
2021/09/14 18:33:52;;;;;;;;;;;25.10;69.10;;;;;;5067875;28;19923;-70
2021/09/14 18:36:56;;;;;;;;;;;25.00;68.80;;;;;;5069896;28;19920;-70
2021/09/14 18:40:06;;;;;;;;;;;24.90;68.80;;;;;;5070055;28;19928;-70
2021/09/14 18:43:11;;;;;;;;;;;24.90;68.90;;;;;;5070340;28;19927;-70
2021/09/14 18:46:15;;;;;;;;;;;24.90;69.50;;;;;;5069836;28;20289;-70
2021/09/14 18:49:19;;;;;;;;;;;24.90;69.50;;;;;;5069223;28;19947;-70
2021/09/14 18:52:23;;;;;;;;;;;24.90;69.20;;;;;;5060806;28;19927;-70
2021/09/14 18:55:27;;;;;;;;;;;24.90;69.30;;;;;;5068091;28;19931;-70
2021/09/14 18:58:31;;;;;;;;;;;24.80;69.70;;;;;;5068829;28;19920;-70
2021/09/14 19:01:35;;;;;;;;;;;24.80;70.20;;;;;;5069922;28;19979;-70
2021/09/14 19:04:39;;;;;;;;;;;24.80;70.40;;;;;;5069445;28;20295;-70